Aquilla, Alabama
Current Conditions -  °F | °C
As of 7:58 PM on Saturday 25 Oct 2014 (Local Time) from KMEI Reporting Station
Clear Clear  
Wind Chill: 63°   Ceiling: Unl
Heat Index: 63°   Visibility: 10mi
Dew Point: 60°   Wind: 0mph
Humidity: 90%   Direction: NA
Pressure: 30.07"   Gusts: NA
Location:  31.6272°N, 88.354°W
Report Text: KMEI 260058Z 00000KT 10SM CLR 17/16 A3007 RMK AO2 SLP181 T01720156
Loading
Personal Weather Stations






























Interactive Weather Map
Tropical Storm Tracking
New forecast layout! Learn more

10-Day Weather Forecast

Advertisements
Track Severe Weather on mobile